Time;durP1;ratioP1;P1;durP2;ratioP2;P2;SDS_P1;SDS_P2;PMS_P1;PMS_P2;Temp;Humidity;BMP_temperature;BMP_pressure;BME280_temperature;BME280_humidity;BME280_pressure;Samples;Min_cycle;Max_cycle;Signal;HPM_P1;HPM_P2
2023/01/08 00:01:17;;;;;;;9.98;8.05;;;;;;;2.96;100.00;95291.69;5113810;27;24453;-75
2023/01/08 00:03:44;;;;;;;11.13;8.52;;;;;;;2.96;100.00;95296.81;5107669;27;24433;-75
2023/01/08 00:06:14;;;;;;;7.90;7.10;;;;;;;2.97;100.00;95305.34;5108289;27;24441;-75
2023/01/08 00:08:40;;;;;;;8.40;7.18;;;;;;;3.03;100.00;95303.34;5121600;27;24433;-75
2023/01/08 00:11:07;;;;;;;8.43;6.87;;;;;;;2.98;100.00;95295.03;5117168;27;24449;-74
2023/01/08 00:13:34;;;;;;;9.55;6.63;;;;;;;3.00;100.00;95289.84;5121227;27;24792;-74
2023/01/08 00:16:04;;;;;;;8.07;6.22;;;;;;;2.98;100.00;95284.78;5126063;27;24440;-75
2023/01/08 00:18:31;;;;;;;7.72;6.35;;;;;;;3.06;100.00;95281.91;5122728;27;24429;-75
2023/01/08 00:20:59;;;;;;;8.95;7.05;;;;;;;3.13;100.00;95273.09;5121758;27;24990;-75
2023/01/08 00:23:26;;;;;;;6.85;6.15;;;;;;;3.23;100.00;95266.72;5119293;27;24812;-75
2023/01/08 00:25:53;;;;;;;6.88;6.18;;;;;;;3.32;100.00;95255.25;5124199;27;24429;-75
2023/01/08 00:28:20;;;;;;;7.00;6.07;;;;;;;3.45;100.00;95260.66;5112129;27;24434;-75
2023/01/08 00:30:47;;;;;;;9.27;6.22;;;;;;;3.49;100.00;95247.69;5120913;27;24429;-75
2023/01/08 00:33:13;;;;;;;10.43;6.70;;;;;;;3.51;100.00;95245.88;5116382;27;24445;-75
2023/01/08 00:35:41;;;;;;;7.68;6.78;;;;;;;3.57;100.00;95245.59;5120134;27;24436;-75
2023/01/08 00:38:08;;;;;;;10.05;6.90;;;;;;;3.48;100.00;95251.13;5106110;27;24967;-74
2023/01/08 00:40:36;;;;;;;8.70;6.65;;;;;;;3.32;100.00;95253.50;5116846;27;24457;-75
2023/01/08 00:43:02;;;;;;;8.30;7.18;;;;;;;3.33;100.00;95262.84;5118656;27;24440;-75
2023/01/08 00:45:29;;;;;;;8.60;6.95;;;;;;;3.41;100.00;95257.38;5115069;27;24915;-75
2023/01/08 00:47:55;;;;;;;9.82;7.03;;;;;;;3.51;100.00;95261.22;5103291;27;24449;-74
2023/01/08 00:50:22;;;;;;;7.55;6.57;;;;;;;3.50;100.00;95249.31;5116536;27;24437;-74
2023/01/08 00:52:48;;;;;;;8.68;6.00;;;;;;;3.60;100.00;95242.09;5117089;27;24445;-74
2023/01/08 00:55:16;;;;;;;10.13;7.05;;;;;;;3.63;100.00;95235.09;5118735;27;24440;-75
2023/01/08 00:57:43;;;;;;;9.82;6.80;;;;;;;3.50;100.00;95239.09;5106029;27;24438;-75
2023/01/08 01:00:14;;;;;;;10.95;8.20;;;;;;;3.39;100.00;95233.59;5118554;27;24440;-75
2023/01/08 01:02:41;;;;;;;11.90;9.60;;;;;;;3.41;100.00;95239.47;5112776;27;25001;-75
2023/01/08 01:05:09;;;;;;;10.52;7.63;;;;;;;3.43;100.00;95237.69;5109124;27;24437;-75
2023/01/08 01:07:36;;;;;;;8.45;7.07;;;;;;;3.40;100.00;95227.56;5113326;27;24470;-75
2023/01/08 01:10:03;;;;;;;14.23;7.80;;;;;;;3.51;100.00;95222.81;5116825;27;24444;-75
2023/01/08 01:12:31;;;;;;;7.80;6.60;;;;;;;3.58;100.00;95224.22;5110811;27;24437;-75
2023/01/08 01:14:58;;;;;;;7.35;6.35;;;;;;;3.82;100.00;95198.41;5115582;27;24436;-75
2023/01/08 01:17:24;;;;;;;10.90;7.43;;;;;;;3.83;100.00;95200.91;5118568;27;24440;-75
2023/01/08 01:19:51;;;;;;;8.47;6.43;;;;;;;3.68;100.00;95205.91;5116014;27;24444;-75
2023/01/08 01:22:17;;;;;;;10.37;6.80;;;;;;;3.71;100.00;95208.28;5105686;27;24461;-75
2023/01/08 01:24:43;;;;;;;7.83;6.87;;;;;;;3.78;100.00;95219.94;5110266;27;24432;-75
2023/01/08 01:27:10;;;;;;;8.23;6.23;;;;;;;3.75;100.00;95220.91;5117416;27;24436;-75
2023/01/08 01:29:38;;;;;;;8.60;6.60;;;;;;;3.68;100.00;95234.91;5115656;27;24468;-75
2023/01/08 01:32:05;;;;;;;7.65;6.35;;;;;;;3.62;100.00;95228.31;5106775;27;24441;-75
2023/01/08 01:34:32;;;;;;;6.13;5.53;;;;;;;3.65;100.00;95222.22;5101427;27;24520;-75
2023/01/08 01:36:58;;;;;;;8.70;6.13;;;;;;;3.62;100.00;95220.63;5121504;27;24471;-75
2023/01/08 01:39:25;;;;;;;8.00;6.22;;;;;;;3.70;100.00;95222.84;5109708;27;24435;-75
2023/01/08 01:41:52;;;;;;;6.10;5.43;;;;;;;3.69;100.00;95212.66;5104160;27;24461;-75
2023/01/08 01:44:41;;;;;;;10.23;6.20;;;;;;;3.71;100.00;95221.09;5110438;27;24901;-75
2023/01/08 01:47:20;;;;;;;7.00;5.78;;;;;;;3.74;100.00;95213.28;5119513;27;24514;-75
2023/01/08 01:49:52;;;;;;;6.35;5.75;;;;;;;3.81;100.00;95212.13;5108022;27;24795;-75
2023/01/08 01:52:21;;;;;;;8.02;5.88;;;;;;;3.83;100.00;95216.28;5113442;27;24433;-75
2023/01/08 01:54:48;;;;;;;8.30;6.28;;;;;;;3.66;100.00;95216.19;5121254;27;24481;-75
2023/01/08 01:57:15;;;;;;;8.32;6.47;;;;;;;3.58;100.00;95216.53;5104583;28;24433;-75
2023/01/08 01:59:44;;;;;;;9.32;6.15;;;;;;;3.57;100.00;95208.94;5117255;28;24437;-75
2023/01/08 02:02:11;;;;;;;7.63;6.33;;;;;;;3.44;100.00;95205.25;5113466;28;24815;-75
2023/01/08 02:04:37;;;;;;;8.48;6.32;;;;;;;3.43;100.00;95195.91;5118637;28;24429;-75
2023/01/08 02:07:12;;;;;;;9.75;6.05;;;;;;;3.41;100.00;95195.94;5107693;28;25004;-75
2023/01/08 02:09:47;;;;;;;7.32;6.40;;;;;;;3.48;100.00;95184.53;5108157;28;24433;-75
2023/01/08 02:12:20;;;;;;;6.60;5.68;;;;;;;3.57;100.00;95186.72;5113866;28;24998;-76
2023/01/08 02:15:02;;;;;;;6.57;4.93;;;;;;;3.64;100.00;95179.59;5115992;28;24429;-76
2023/01/08 02:17:38;;;;;;;6.55;5.30;;;;;;;3.73;100.00;95179.16;5109763;28;24437;-76
2023/01/08 02:20:11;;;;;;;6.45;5.70;;;;;;;3.70;100.00;95175.91;5121479;28;24440;-76
2023/01/08 02:22:47;;;;;;;6.93;6.22;;;;;;;3.48;100.00;95179.44;5113581;28;24464;-77
2023/01/08 02:25:22;;;;;;;7.90;5.82;;;;;;;3.36;100.00;95170.56;5108269;28;24449;-77
2023/01/08 02:27:53;;;;;;;6.72;6.05;;;;;;;3.40;100.00;95168.69;5113527;28;24833;-76
2023/01/08 02:30:20;;;;;;;6.30;5.30;;;;;;;3.36;100.00;95170.56;5118970;28;24437;-76
2023/01/08 02:32:46;;;;;;;6.45;5.78;;;;;;;3.43;100.00;95160.06;5107987;28;24493;-76
2023/01/08 02:35:13;;;;;;;6.03;5.37;;;;;;;3.49;100.00;95158.06;5103355;28;24442;-76
2023/01/08 02:37:40;;;;;;;5.88;5.38;;;;;;;3.58;100.00;95167.06;5107619;28;24439;-77
2023/01/08 02:40:18;;;;;;;6.82;5.45;;;;;;;3.56;100.00;95158.59;5115343;27;24436;-77
2023/01/08 02:42:50;;;;;;;5.88;5.22;;;;;;;3.57;100.00;95158.56;5113762;28;24534;-77
2023/01/08 02:45:32;;;;;;;9.02;5.88;;;;;;;3.60;100.00;95171.22;5105973;28;25010;-75
2023/01/08 02:48:05;;;;;;;7.72;5.40;;;;;;;3.71;100.00;95154.50;5113828;28;24511;-75
2023/01/08 02:50:37;;;;;;;5.95;5.38;;;;;;;3.86;100.00;95151.28;5111843;28;24429;-75
2023/01/08 02:53:10;;;;;;;5.65;5.10;;;;;;;3.81;100.00;95153.19;5104054;28;25030;-75
2023/01/08 02:55:41;;;;;;;7.07;5.18;;;;;;;3.84;100.00;95148.75;5108913;28;24441;-75
2023/01/08 02:58:08;;;;;;;5.70;5.20;;;;;;;3.85;100.00;95140.19;5120566;28;24444;-75
2023/01/08 03:00:39;;;;;;;7.80;5.95;;;;;;;3.85;100.00;95132.50;5116855;28;24433;-75
2023/01/08 03:03:10;;;;;;;6.18;5.15;;;;;;;3.87;100.00;95130.69;5110085;28;24464;-75
2023/01/08 03:05:40;;;;;;;6.40;5.30;;;;;;;3.85;100.00;95124.81;5111369;27;24444;-75
2023/01/08 03:08:07;;;;;;;6.60;5.32;;;;;;;3.87;100.00;95125.56;5112582;27;24432;-75
2023/01/08 03:10:37;;;;;;;5.43;4.93;;;;;;;3.87;100.00;95122.19;5109736;28;24441;-75
2023/01/08 03:13:08;;;;;;;7.80;5.88;;;;;;;3.95;100.00;95122.66;5109888;27;24434;-75
2023/01/08 03:15:43;;;;;;;8.03;5.57;;;;;;;3.97;100.00;95127.69;5115331;27;24490;-77
2023/01/08 03:18:15;;;;;;;6.30;5.60;;;;;;;3.96;100.00;95120.91;5112649;27;25030;-76
2023/01/08 03:20:43;;;;;;;7.75;5.80;;;;;;;3.93;100.00;95116.78;5120045;27;25021;-76
2023/01/08 03:23:12;;;;;;;7.80;5.57;;;;;;;4.02;100.00;95105.25;5113543;27;24454;-76
2023/01/08 03:25:42;;;;;;;9.35;5.40;;;;;;;4.00;100.00;95097.63;5110145;27;24815;-76
2023/01/08 03:28:13;;;;;;;7.10;5.38;;;;;;;4.05;100.00;95097.44;5121248;27;24437;-76
2023/01/08 03:30:42;;;;;;;5.85;5.22;;;;;;;4.07;100.00;95098.16;5102792;27;24429;-76
2023/01/08 03:33:12;;;;;;;8.00;6.07;;;;;;;3.99;100.00;95093.41;5112702;27;24808;-77
2023/01/08 03:35:41;;;;;;;6.65;5.78;;;;;;;4.03;100.00;95089.81;5117276;27;24440;-75
2023/01/08 03:38:14;;;;;;;6.32;5.25;;;;;;;4.08;100.00;95090.44;5123796;27;24437;-75
2023/01/08 03:40:44;;;;;;;10.35;6.15;;;;;;;4.23;100.00;95095.72;5110895;27;24456;-75
2023/01/08 03:43:11;;;;;;;6.53;5.43;;;;;;;4.13;100.00;95091.03;5106297;27;24465;-75
2023/01/08 03:45:46;;;;;;;8.35;5.75;;;;;;;4.07;100.00;95088.75;5110513;27;24444;-75
2023/01/08 03:48:12;;;;;;;6.55;5.95;;;;;;;3.98;100.00;95093.50;5123670;27;24440;-75
2023/01/08 03:50:40;;;;;;;7.25;5.65;;;;;;;3.92;100.00;95081.81;5111187;27;25005;-76
2023/01/08 03:53:07;;;;;;;8.32;5.85;;;;;;;3.99;100.00;95085.72;5113578;27;24436;-75
2023/01/08 03:55:34;;;;;;;7.88;6.25;;;;;;;3.92;100.00;95084.38;5118445;27;24440;-74
2023/01/08 03:58:00;;;;;;;7.40;5.50;;;;;;;3.85;100.00;95090.69;5123246;27;24437;-76
2023/01/08 04:00:27;;;;;;;6.38;5.40;;;;;;;3.74;100.00;95096.31;5111976;27;24433;-76
2023/01/08 04:02:55;;;;;;;5.93;5.32;;;;;;;3.66;100.00;95095.00;5105928;27;24457;-76
2023/01/08 04:05:21;;;;;;;6.53;4.70;;;;;;;3.56;100.00;95085.22;5104644;27;24437;-76
2023/01/08 04:07:47;;;;;;;5.60;4.80;;;;;;;3.44;100.00;95090.88;5123535;27;24445;-76
2023/01/08 04:10:14;;;;;;;6.43;4.85;;;;;;;3.42;100.00;95081.63;5119965;27;24461;-76
2023/01/08 04:12:42;;;;;;;5.63;5.03;;;;;;;3.53;100.00;95092.19;5113910;27;24437;-76
2023/01/08 04:15:09;;;;;;;5.57;4.38;;;;;;;3.56;100.00;95089.47;5112794;27;24445;-76
2023/01/08 04:17:35;;;;;;;5.65;5.05;;;;;;;3.53;100.00;95090.47;5123281;27;24435;-76
2023/01/08 04:20:04;;;;;;;5.22;4.57;;;;;;;3.55;100.00;95093.75;5123968;27;24432;-77
2023/01/08 04:22:30;;;;;;;6.10;5.50;;;;;;;3.43;100.00;95099.47;5106813;27;24454;-76
2023/01/08 04:24:56;;;;;;;5.57;4.83;;;;;;;3.43;100.00;95101.19;5111194;27;25009;-76
2023/01/08 04:27:23;;;;;;;6.10;5.30;;;;;;;3.35;100.00;95094.69;5112707;27;24442;-77
2023/01/08 04:29:49;;;;;;;5.90;5.07;;;;;;;3.38;100.00;95096.28;5109107;27;25021;-77
2023/01/08 04:32:16;;;;;;;6.13;5.53;;;;;;;3.40;100.00;95097.03;5109303;27;25002;-77
2023/01/08 04:34:42;;;;;;;6.03;5.40;;;;;;;3.48;100.00;95089.81;5112431;27;24440;-76
2023/01/08 04:37:10;;;;;;;5.75;5.22;;;;;;;3.51;100.00;95092.25;5115334;27;24438;-76
2023/01/08 04:39:37;;;;;;;9.00;5.85;;;;;;;3.51;100.00;95092.25;5106649;27;24440;-76
2023/01/08 04:42:03;;;;;;;5.88;5.10;;;;;;;3.56;100.00;95094.59;5095413;27;24465;-75
2023/01/08 04:44:30;;;;;;;5.47;4.88;;;;;;;3.63;100.00;95088.28;5117337;27;24425;-75
2023/01/08 04:46:56;;;;;;;6.80;5.60;;;;;;;3.64;100.00;95083.13;5120212;27;24454;-75
2023/01/08 04:49:23;;;;;;;6.47;4.90;;;;;;;3.76;100.00;95081.72;5116408;27;24444;-75
2023/01/08 04:51:49;;;;;;;6.68;4.82;;;;;;;3.80;100.00;95078.09;5102256;27;24434;-75
2023/01/08 04:54:17;;;;;;;6.72;4.53;;;;;;;3.85;100.00;95075.31;5109407;27;24438;-75
2023/01/08 04:56:44;;;;;;;5.75;4.65;;;;;;;3.98;100.00;95067.88;5120906;27;24433;-75
2023/01/08 04:59:10;;;;;;;6.47;4.70;;;;;;;3.97;100.00;95079.00;5116854;27;24433;-75
2023/01/08 05:01:36;;;;;;;4.80;4.30;;;;;;;4.03;100.00;95076.16;5101458;28;24433;-75
2023/01/08 05:04:05;;;;;;;5.05;4.40;;;;;;;4.16;100.00;95079.81;5120851;27;24433;-75
2023/01/08 05:06:32;;;;;;;4.88;3.80;;;;;;;4.23;100.00;95083.72;5114744;27;24516;-75
2023/01/08 05:08:59;;;;;;;5.55;4.20;;;;;;;4.29;100.00;95067.22;5115655;27;24437;-75
2023/01/08 05:11:26;;;;;;;5.18;3.50;;;;;;;4.36;100.00;95064.25;5108205;27;24811;-75
2023/01/08 05:13:53;;;;;;;4.97;3.55;;;;;;;4.42;100.00;95063.13;5120801;27;24437;-75
2023/01/08 05:16:20;;;;;;;5.63;3.35;;;;;;;4.49;100.00;95061.94;5116997;27;24433;-75
2023/01/08 05:18:47;;;;;;;4.45;3.28;;;;;;;4.45;100.00;95064.69;5111228;27;24433;-75
2023/01/08 05:21:13;;;;;;;3.85;3.03;;;;;;;4.46;100.00;95061.25;5104791;27;24440;-75
2023/01/08 05:23:40;;;;;;;4.38;3.10;;;;;;;4.47;100.00;95061.16;5118450;27;24448;-75
2023/01/08 05:26:07;;;;;;;4.20;2.95;;;;;;;4.53;100.00;95068.56;5121666;27;24437;-75
2023/01/08 05:28:35;;;;;;;5.87;3.30;;;;;;;4.54;100.00;95072.78;5116482;27;24440;-75
2023/01/08 05:31:01;;;;;;;3.75;2.55;;;;;;;4.66;100.00;95067.94;5119610;27;24444;-75
2023/01/08 05:33:28;;;;;;;5.10;2.75;;;;;;;4.73;100.00;95061.59;5109427;27;24444;-75
2023/01/08 05:35:55;;;;;;;6.50;2.83;;;;;;;4.69;100.00;95063.47;5119104;27;24444;-75
2023/01/08 05:38:21;;;;;;;4.82;3.80;;;;;;;4.70;100.00;95061.75;5103207;27;24921;-75
2023/01/08 05:40:48;;;;;;;4.65;3.63;;;;;;;4.69;100.00;95062.66;5109488;27;24439;-75
2023/01/08 05:43:14;;;;;;;3.15;2.15;;;;;;;4.74;100.00;95065.81;5105690;27;24994;-75
2023/01/08 05:45:42;;;;;;;4.30;2.30;;;;;;;4.81;100.00;95060.28;5117478;27;24489;-74
2023/01/08 05:48:09;;;;;;;3.50;2.13;;;;;;;4.80;100.00;95058.63;5118559;27;25013;-75
2023/01/08 05:50:35;;;;;;;2.55;1.92;;;;;;;4.87;100.00;95051.44;5114949;27;24444;-75
2023/01/08 05:53:06;;;;;;;1.40;1.30;;;;;;;5.08;100.00;95065.72;5105292;27;24441;-75
2023/01/08 05:55:32;;;;;;;3.90;2.85;;;;;;;5.07;100.00;95066.63;5116603;27;25068;-75
2023/01/08 05:58:00;;;;;;;4.72;3.17;;;;;;;5.09;100.00;95058.84;5111774;27;24452;-75
2023/01/08 06:00:27;;;;;;;7.07;2.03;;;;;;;5.14;100.00;95053.47;5106452;27;24437;-75
2023/01/08 06:02:55;;;;;;;2.10;1.50;;;;;;;5.13;100.00;95049.25;5089528;28;24466;-75
2023/01/08 06:05:21;;;;;;;2.33;1.20;;;;;;;5.14;100.00;95048.34;5095277;28;25086;-75
2023/01/08 06:07:48;;;;;;;1.93;1.33;;;;;;;5.26;100.00;95051.06;5094354;28;24490;-75
2023/01/08 06:10:14;;;;;;;1.73;1.20;;;;;;;5.21;100.00;95050.50;5095421;28;24518;-76
2023/01/08 06:12:41;;;;;;;4.30;1.48;;;;;;;5.17;100.00;95056.72;5096244;28;24462;-75
2023/01/08 06:15:09;;;;;;;1.83;1.23;;;;;;;5.18;100.00;95044.69;5107487;28;24899;-76
2023/01/08 06:17:36;;;;;;;1.40;1.00;;;;;;;5.23;100.00;95042.72;5106022;28;24440;-76
2023/01/08 06:20:04;;;;;;;1.50;0.88;;;;;;;5.31;100.00;95050.84;5098599;28;24449;-76
2023/01/08 06:22:31;;;;;;;2.10;1.20;;;;;;;5.37;100.00;95039.41;5120230;28;24991;-75
2023/01/08 06:24:57;;;;;;;2.30;1.05;;;;;;;5.41;100.00;95044.28;5113647;28;24827;-76
2023/01/08 06:27:24;;;;;;;1.90;1.30;;;;;;;5.48;100.00;95042.22;5112844;28;24987;-75
2023/01/08 06:29:50;;;;;;;4.82;2.72;;;;;;;5.50;100.00;95036.09;5110626;28;24433;-76
2023/01/08 06:32:17;;;;;;;11.23;5.75;;;;;;;5.47;100.00;95041.41;5117488;28;24795;-75
2023/01/08 06:34:43;;;;;;;3.85;2.90;;;;;;;5.54;100.00;95026.47;5116934;28;24963;-76
2023/01/08 06:37:11;;;;;;;5.05;3.10;;;;;;;5.47;100.00;95031.13;5109355;28;24990;-75
2023/01/08 06:39:37;;;;;;;8.32;5.72;;;;;;;5.43;100.00;95027.06;5114610;28;24437;-77
2023/01/08 06:42:04;;;;;;;8.18;4.88;;;;;;;5.43;100.00;95033.94;5117097;27;24442;-77
2023/01/08 06:44:30;;;;;;;3.08;2.47;;;;;;;5.48;100.00;95026.81;5112858;27;24982;-77
2023/01/08 06:46:57;;;;;;;2.25;1.95;;;;;;;5.59;100.00;95024.47;5116987;27;24993;-77
2023/01/08 06:49:23;;;;;;;2.58;0.90;;;;;;;5.59;100.00;95020.16;5113530;27;25162;-77
2023/01/08 06:51:50;;;;;;;1.08;0.95;;;;;;;5.58;100.00;95036.50;5120405;27;24801;-77
2023/01/08 06:54:18;;;;;;;1.08;0.68;;;;;;;5.59;100.00;95027.03;5115740;27;24779;-77
2023/01/08 06:56:44;;;;;;;0.95;0.73;;;;;;;5.62;100.00;95029.44;5115247;27;24448;-77
2023/01/08 06:59:10;;;;;;;2.70;0.80;;;;;;;5.63;100.00;95028.53;5104507;27;24430;-77
2023/01/08 07:01:37;;;;;;;2.30;0.82;;;;;;;5.56;100.00;95022.94;5109738;27;24460;-77
2023/01/08 07:04:03;;;;;;;2.03;0.77;;;;;;;5.58;100.00;95027.97;5118447;27;24472;-77
2023/01/08 07:06:30;;;;;;;1.60;0.80;;;;;;;5.56;100.00;95028.06;5116787;27;24796;-77
2023/01/08 07:08:56;;;;;;;0.80;0.75;;;;;;;5.53;100.00;95035.94;5110037;27;24819;-77
2023/01/08 07:11:24;;;;;;;1.33;0.80;;;;;;;5.50;100.00;95030.97;5110969;27;24449;-76
2023/01/08 07:13:51;;;;;;;1.23;0.77;;;;;;;5.51;100.00;95027.47;5102167;27;24452;-77
2023/01/08 07:16:17;;;;;;;1.75;0.90;;;;;;;5.51;100.00;95026.66;5100719;27;24446;-77
2023/01/08 07:18:44;;;;;;;1.67;0.97;;;;;;;5.57;100.00;95029.72;5101138;27;24432;-76
2023/01/08 07:21:10;;;;;;;1.83;0.87;;;;;;;5.54;100.00;95026.47;5108770;27;25080;-77
2023/01/08 07:23:37;;;;;;;2.30;0.98;;;;;;;5.46;100.00;95024.34;5116912;27;25028;-77
2023/01/08 07:26:06;;;;;;;2.08;1.00;;;;;;;5.44;100.00;95030.47;5115178;27;24438;-77
2023/01/08 07:28:34;;;;;;;1.25;0.85;;;;;;;5.44;100.00;95031.28;5109295;27;24530;-76
2023/01/08 07:31:04;;;;;;;1.35;1.05;;;;;;;5.46;100.00;95033.78;5093117;28;24472;-77
2023/01/08 07:33:30;;;;;;;1.05;0.88;;;;;;;5.44;100.00;95033.03;5093213;28;24529;-77
2023/01/08 07:35:57;;;;;;;1.47;0.90;;;;;;;5.48;100.00;95040.47;5094245;27;24514;-71
2023/01/08 07:38:24;;;;;;;1.45;0.90;;;;;;;5.42;100.00;95042.56;5093889;27;24441;-77
2023/01/08 07:40:50;;;;;;;1.38;0.70;;;;;;;5.47;100.00;95040.56;5093043;27;24891;-76
2023/01/08 07:43:17;;;;;;;1.63;1.02;;;;;;;5.46;100.00;95044.88;5094843;27;24489;-76
2023/01/08 07:45:45;;;;;;;3.42;1.40;;;;;;;5.48;100.00;95042.22;5109122;27;24490;-76
2023/01/08 07:48:14;;;;;;;6.50;2.80;;;;;;;5.50;100.00;95043.81;5114924;27;24461;-76
2023/01/08 07:50:41;;;;;;;5.18;2.90;;;;;;;5.50;100.00;95046.38;5112533;27;24465;-76
2023/01/08 07:53:07;;;;;;;2.33;1.77;;;;;;;5.53;100.00;95043.63;5123448;27;25063;-76
2023/01/08 07:55:34;;;;;;;2.20;1.20;;;;;;;5.46;100.00;95039.75;5110487;27;24527;-75
2023/01/08 07:58:00;;;;;;;3.90;2.60;;;;;;;5.49;100.00;95039.59;5108323;28;24433;-76
2023/01/08 08:00:27;;;;;;;5.32;2.88;;;;;;;5.51;100.00;95034.34;5114068;27;24437;-75
2023/01/08 08:02:55;;;;;;;3.10;1.70;;;;;;;5.50;100.00;95027.56;5110506;27;24853;-76
2023/01/08 08:05:21;;;;;;;9.43;3.60;;;;;;;5.43;100.00;95034.78;5112559;27;24434;-75
2023/01/08 08:07:48;;;;;;;4.07;2.85;;;;;;;5.46;100.00;95034.59;5116709;27;24444;-76
2023/01/08 08:10:14;;;;;;;4.35;3.00;;;;;;;5.45;100.00;95037.25;5120786;27;24434;-76
2023/01/08 08:12:40;;;;;;;2.30;1.40;;;;;;;5.45;100.00;95030.38;5122463;27;24437;-75
2023/01/08 08:15:08;;;;;;;1.10;0.77;;;;;;;5.47;100.00;95025.97;5117698;27;24456;-76
2023/01/08 08:17:35;;;;;;;1.10;0.68;;;;;;;5.48;100.00;95019.94;5113428;27;25017;-77
2023/01/08 08:20:03;;;;;;;0.52;0.45;;;;;;;5.52;100.00;95016.28;5109578;27;24841;-76
2023/01/08 08:22:29;;;;;;;1.00;0.60;;;;;;;5.50;100.00;95019.84;5118154;27;24678;-76
2023/01/08 08:24:56;;;;;;;1.80;0.90;;;;;;;5.46;100.00;95015.81;5108645;27;24438;-76
2023/01/08 08:27:23;;;;;;;1.80;0.82;;;;;;;5.49;100.00;95013.06;5111472;27;24885;-76
2023/01/08 08:29:50;;;;;;;1.65;0.47;;;;;;;5.57;100.00;95016.03;5114448;27;24528;-76
2023/01/08 08:32:16;;;;;;;0.85;0.68;;;;;;;5.56;100.00;95011.78;5114877;27;24433;-76
2023/01/08 08:34:42;;;;;;;1.27;0.60;;;;;;;5.61;100.00;95006.44;5122701;27;24440;-76
2023/01/08 08:37:10;;;;;;;1.85;0.82;;;;;;;5.63;100.00;95012.28;5111124;27;24421;-75
2023/01/08 08:39:37;;;;;;;1.23;0.67;;;;;;;5.61;100.00;95006.44;5084910;28;24465;-75
2023/01/08 08:42:04;;;;;;;1.77;0.77;;;;;;;5.54;100.00;94996.47;5093492;28;24442;-75
2023/01/08 08:44:31;;;;;;;0.93;0.60;;;;;;;5.63;100.00;94995.13;5100400;28;24807;-75
2023/01/08 08:46:57;;;;;;;1.45;0.75;;;;;;;5.66;100.00;95004.41;5092301;28;24915;-74
2023/01/08 08:49:23;;;;;;;2.45;0.60;;;;;;;5.67;100.00;95000.94;5086855;28;24793;-75
2023/01/08 08:51:51;;;;;;;1.45;0.70;;;;;;;5.60;100.00;95000.47;5079461;28;24443;-75
2023/01/08 08:54:19;;;;;;;1.08;0.80;;;;;;;5.66;100.00;94994.16;5084744;28;24438;-75
2023/01/08 08:56:47;;;;;;;1.00;0.75;;;;;;;5.62;100.00;94998.63;5084267;28;24437;-75
2023/01/08 08:59:14;;;;;;;1.90;1.10;;;;;;;5.65;100.00;94995.06;5099790;28;24430;-75
2023/01/08 09:01:40;;;;;;;1.45;0.90;;;;;;;5.71;100.00;94997.28;5078096;28;24493;-75
2023/01/08 09:04:07;;;;;;;1.15;0.85;;;;;;;5.68;100.00;94994.91;5070898;28;24454;-75
2023/01/08 09:06:33;;;;;;;0.90;0.70;;;;;;;5.76;100.00;94988.41;5075183;28;24438;-75
2023/01/08 09:09:00;;;;;;;1.50;1.10;;;;;;;5.68;100.00;94995.72;5071953;28;24438;-75
2023/01/08 09:11:28;;;;;;;2.05;0.90;;;;;;;5.68;100.00;94998.28;5077551;28;24438;-75
2023/01/08 09:13:54;;;;;;;1.30;0.60;;;;;;;5.71;100.00;94999.84;5072341;28;25049;-75
2023/01/08 09:16:21;;;;;;;0.90;0.60;;;;;;;5.72;100.00;95002.34;5073518;28;24446;-75
2023/01/08 09:18:47;;;;;;;0.90;0.60;;;;;;;5.72;100.00;94999.78;5078840;28;24439;-75
2023/01/08 09:21:14;;;;;;;2.10;0.68;;;;;;;5.69;100.00;94999.94;5102380;28;24791;-75
2023/01/08 09:23:41;;;;;;;0.77;0.63;;;;;;;5.71;100.00;94994.72;5088341;28;24543;-75
2023/01/08 09:26:07;;;;;;;0.77;0.68;;;;;;;5.69;100.00;94999.13;5085895;28;24425;-75
2023/01/08 09:28:36;;;;;;;0.60;0.60;;;;;;;5.71;100.00;95002.41;5087243;28;24847;-75
2023/01/08 09:31:03;;;;;;;0.70;0.60;;;;;;;5.68;100.00;95006.00;5098828;28;24533;-75
2023/01/08 09:33:31;;;;;;;0.50;0.50;;;;;;;5.75;100.00;95002.19;5100709;28;24430;-75
2023/01/08 09:35:57;;;;;;;1.00;0.63;;;;;;;5.75;100.00;95009.06;5083247;28;24521;-75
2023/01/08 09:38:24;;;;;;;0.93;0.60;;;;;;;5.71;100.00;95010.13;5095609;28;24987;-75
2023/01/08 09:40:56;;;;;;;2.60;0.63;;;;;;;5.69;100.00;94997.38;5099627;28;25005;-75
2023/01/08 09:43:24;;;;;;;3.15;0.85;;;;;;;5.71;100.00;95002.41;5087566;28;24469;-75
2023/01/08 09:45:55;;;;;;;0.90;0.55;;;;;;;5.77;100.00;95002.91;5100166;28;24440;-75
2023/01/08 09:48:26;;;;;;;0.73;0.57;;;;;;;5.80;100.00;95017.34;5102501;28;24433;-75
2023/01/08 09:50:52;;;;;;;1.33;0.90;;;;;;;5.85;100.00;95007.59;5102387;28;24432;-75
2023/01/08 09:53:19;;;;;;;1.63;0.90;;;;;;;5.78;100.00;95008.88;5100349;28;24430;-75
2023/01/08 09:55:54;;;;;;;0.68;0.60;;;;;;;5.79;100.00;95011.38;5086139;28;24426;-75
2023/01/08 09:58:27;;;;;;;1.20;0.88;;;;;;;5.83;100.00;95020.56;5102942;28;24433;-76
2023/01/08 10:00:55;;;;;;;0.88;0.80;;;;;;;5.82;100.00;95016.34;5096812;28;24430;-75
2023/01/08 10:03:25;;;;;;;2.50;1.10;;;;;;;5.85;100.00;95014.50;5096517;28;24465;-75
2023/01/08 10:05:52;;;;;;;0.90;0.57;;;;;;;5.82;100.00;95018.91;5102131;28;24440;-75
2023/01/08 10:08:18;;;;;;;1.17;0.80;;;;;;;5.80;100.00;95012.19;5103414;28;25090;-76
2023/01/08 10:10:45;;;;;;;1.27;0.93;;;;;;;5.83;100.00;95015.41;5080521;28;24430;-76
2023/01/08 10:13:13;;;;;;;1.20;0.90;;;;;;;5.85;100.00;95006.78;5101859;28;24837;-76
2023/01/08 10:15:40;;;;;;;1.53;0.80;;;;;;;5.89;100.00;95005.69;5095864;28;24429;-76
2023/01/08 10:18:12;;;;;;;1.85;0.93;;;;;;;5.94;100.00;95009.72;5093019;28;24430;-76
2023/01/08 10:20:39;;;;;;;3.47;1.80;;;;;;;5.93;100.00;95012.34;5090611;28;24458;-76
2023/01/08 10:23:10;;;;;;;1.80;1.20;;;;;;;5.94;100.00;95007.13;5077262;28;24443;-76
2023/01/08 10:25:49;;;;;;;1.90;1.27;;;;;;;5.96;100.00;95001.91;5103089;28;24449;-75
2023/01/08 10:28:20;;;;;;;2.95;1.25;;;;;;;5.98;100.00;94994.94;5097492;28;24429;-76
2023/01/08 10:30:47;;;;;;;2.60;1.00;;;;;;;6.01;100.00;94987.88;5093510;28;24427;-76
2023/01/08 10:33:20;;;;;;;2.25;1.02;;;;;;;6.02;100.00;94983.56;5087112;28;24449;-76
2023/01/08 10:35:53;;;;;;;1.90;1.00;;;;;;;6.07;100.00;94984.94;5097841;28;24426;-75
2023/01/08 10:38:30;;;;;;;4.35;1.05;;;;;;;6.20;100.00;94985.06;5105954;28;24433;-76
2023/01/08 10:40:57;;;;;;;2.15;1.30;;;;;;;6.20;100.00;94982.50;5096382;28;24430;-76
2023/01/08 10:43:28;;;;;;;1.55;1.30;;;;;;;6.28;100.00;94982.06;5099273;28;24446;-76
2023/01/08 10:45:59;;;;;;;2.50;1.00;;;;;;;6.29;100.00;94978.56;5096003;28;24483;-76
2023/01/08 10:48:33;;;;;;;2.58;1.10;;;;;;;6.30;100.00;94973.34;5104954;28;24506;-75
2023/01/08 10:51:12;;;;;;;0.70;0.70;;;;;;;6.33;100.00;94971.50;5110639;28;24490;-76
2023/01/08 10:53:40;;;;;;;1.20;0.70;;;;;;;6.37;100.00;94971.22;5103523;28;20745;-76
2023/01/08 10:56:15;;;;;;;1.58;1.00;;;;;;;6.42;100.00;94973.53;5094294;27;24488;-76
2023/01/08 10:58:42;;;;;;;1.10;0.90;;;;;;;6.47;100.00;94972.34;5103962;28;24429;-76
2023/01/08 11:01:11;;;;;;;1.13;0.95;;;;;;;6.52;100.00;94969.47;5100816;28;24600;-76
2023/01/08 11:03:40;;;;;;;1.92;0.90;;;;;;;6.50;100.00;94961.88;5102532;28;25041;-75
2023/01/08 11:06:12;;;;;;;0.90;0.73;;;;;;;6.54;100.00;94952.22;5094161;28;20755;-76
2023/01/08 11:08:39;;;;;;;1.57;0.93;;;;;;;6.59;100.00;94951.94;5098996;28;21176;-77
2023/01/08 11:11:08;;;;;;;0.60;0.60;;;;;;;6.64;100.00;94948.19;5105306;28;24430;-76
2023/01/08 11:13:34;;;;;;;1.70;0.60;;;;;;;6.71;100.00;94938.31;5083269;28;24442;-75
2023/01/08 11:16:03;;;;;;;1.30;0.60;;;;;;;6.73;100.00;94937.31;5084530;28;20784;-76
2023/01/08 11:18:30;;;;;;;0.88;0.68;;;;;;;6.73;100.00;94939.88;5096112;28;24434;-76
2023/01/08 11:21:09;;;;;;;0.90;0.70;;;;;;;6.73;100.00;94936.50;5094697;28;24437;-76
2023/01/08 11:23:36;;;;;;;0.93;0.65;;;;;;;6.68;100.00;94916.19;5104770;28;20847;-76
2023/01/08 11:26:08;;;;;;;1.10;0.85;;;;;;;6.73;100.00;94923.63;5092960;28;24438;-77
2023/01/08 11:28:47;;;;;;;0.90;0.80;;;;;;;6.77;100.00;94918.19;5103016;28;24428;-76
2023/01/08 11:31:17;;;;;;;0.60;0.55;;;;;;;6.78;100.00;94908.72;5091816;28;24780;-77
2023/01/08 11:33:46;;;;;;;0.77;0.60;;;;;;;6.95;100.00;94910.25;5104788;28;24422;-76
2023/01/08 11:36:23;;;;;;;0.75;0.55;;;;;;;7.09;100.00;94906.84;5091740;28;20770;-75
2023/01/08 11:38:50;;;;;;;0.80;0.50;;;;;;;7.05;100.00;94905.38;5098078;28;21208;-75